sensor_id;sensor_type;location;lat;lon;timestamp;P1;durP1;ratioP1;P2;durP2;ratioP2
30519;SDS011;17300;50.374;8.006;2022-11-30T00:01:37;18.47;;;12.47;;
30519;SDS011;17300;50.374;8.006;2022-11-30T00:04:04;19.77;;;12.13;;
30519;SDS011;17300;50.374;8.006;2022-11-30T00:06:31;19.40;;;12.30;;
30519;SDS011;17300;50.374;8.006;2022-11-30T00:08:59;19.33;;;12.60;;
30519;SDS011;17300;50.374;8.006;2022-11-30T00:11:26;17.77;;;12.47;;
30519;SDS011;17300;50.374;8.006;2022-11-30T00:13:53;16.60;;;11.93;;
30519;SDS011;17300;50.374;8.006;2022-11-30T00:16:20;17.07;;;12.63;;
30519;SDS011;17300;50.374;8.006;2022-11-30T00:18:47;18.87;;;13.17;;
30519;SDS011;17300;50.374;8.006;2022-11-30T00:21:14;21.03;;;13.30;;
30519;SDS011;17300;50.374;8.006;2022-11-30T00:23:42;20.53;;;13.23;;
30519;SDS011;17300;50.374;8.006;2022-11-30T00:26:12;17.63;;;12.13;;
30519;SDS011;17300;50.374;8.006;2022-11-30T00:28:40;20.80;;;13.47;;
30519;SDS011;17300;50.374;8.006;2022-11-30T00:31:09;16.33;;;12.27;;
30519;SDS011;17300;50.374;8.006;2022-11-30T00:33:38;17.30;;;12.20;;
30519;SDS011;17300;50.374;8.006;2022-11-30T00:36:06;19.27;;;12.77;;
30519;SDS011;17300;50.374;8.006;2022-11-30T00:38:35;18.63;;;12.60;;
30519;SDS011;17300;50.374;8.006;2022-11-30T00:41:02;19.80;;;11.70;;
30519;SDS011;17300;50.374;8.006;2022-11-30T00:43:31;16.97;;;11.87;;
30519;SDS011;17300;50.374;8.006;2022-11-30T00:45:58;16.03;;;12.10;;
30519;SDS011;17300;50.374;8.006;2022-11-30T00:48:24;17.00;;;12.00;;
30519;SDS011;17300;50.374;8.006;2022-11-30T00:50:51;17.10;;;12.17;;
30519;SDS011;17300;50.374;8.006;2022-11-30T00:53:18;17.53;;;12.10;;
30519;SDS011;17300;50.374;8.006;2022-11-30T00:55:46;17.40;;;11.60;;
30519;SDS011;17300;50.374;8.006;2022-11-30T00:58:13;19.23;;;13.03;;
30519;SDS011;17300;50.374;8.006;2022-11-30T01:00:41;19.93;;;12.93;;
30519;SDS011;17300;50.374;8.006;2022-11-30T01:03:08;19.03;;;13.47;;
30519;SDS011;17300;50.374;8.006;2022-11-30T01:05:36;19.10;;;13.00;;
30519;SDS011;17300;50.374;8.006;2022-11-30T01:08:03;18.70;;;12.90;;
30519;SDS011;17300;50.374;8.006;2022-11-30T01:10:32;19.00;;;13.27;;
30519;SDS011;17300;50.374;8.006;2022-11-30T01:13:00;18.83;;;12.50;;
30519;SDS011;17300;50.374;8.006;2022-11-30T01:15:27;17.03;;;12.40;;
30519;SDS011;17300;50.374;8.006;2022-11-30T01:17:55;18.00;;;12.30;;
30519;SDS011;17300;50.374;8.006;2022-11-30T01:20:24;18.40;;;12.43;;
30519;SDS011;17300;50.374;8.006;2022-11-30T01:22:51;19.33;;;12.37;;
30519;SDS011;17300;50.374;8.006;2022-11-30T01:25:17;18.47;;;12.40;;
30519;SDS011;17300;50.374;8.006;2022-11-30T01:27:46;18.47;;;13.60;;
30519;SDS011;17300;50.374;8.006;2022-11-30T01:30:13;22.40;;;15.27;;
30519;SDS011;17300;50.374;8.006;2022-11-30T01:32:40;21.27;;;14.30;;
30519;SDS011;17300;50.374;8.006;2022-11-30T01:35:09;20.37;;;13.87;;
30519;SDS011;17300;50.374;8.006;2022-11-30T01:37:36;19.30;;;14.23;;
30519;SDS011;17300;50.374;8.006;2022-11-30T01:40:03;21.37;;;13.77;;
30519;SDS011;17300;50.374;8.006;2022-11-30T01:42:30;20.73;;;13.73;;
30519;SDS011;17300;50.374;8.006;2022-11-30T01:44:57;17.47;;;12.60;;
30519;SDS011;17300;50.374;8.006;2022-11-30T01:47:27;19.60;;;13.10;;
30519;SDS011;17300;50.374;8.006;2022-11-30T01:50:00;17.67;;;12.37;;
30519;SDS011;17300;50.374;8.006;2022-11-30T01:52:33;19.00;;;13.30;;
30519;SDS011;17300;50.374;8.006;2022-11-30T01:55:04;16.80;;;11.67;;
30519;SDS011;17300;50.374;8.006;2022-11-30T01:57:35;19.10;;;12.00;;
30519;SDS011;17300;50.374;8.006;2022-11-30T02:00:06;18.90;;;13.13;;
30519;SDS011;17300;50.374;8.006;2022-11-30T02:02:36;19.10;;;13.33;;
30519;SDS011;17300;50.374;8.006;2022-11-30T02:05:09;20.57;;;13.77;;
30519;SDS011;17300;50.374;8.006;2022-11-30T02:07:39;22.83;;;14.77;;
30519;SDS011;17300;50.374;8.006;2022-11-30T02:10:11;22.80;;;13.60;;
30519;SDS011;17300;50.374;8.006;2022-11-30T02:12:42;22.00;;;14.30;;
30519;SDS011;17300;50.374;8.006;2022-11-30T02:15:26;21.70;;;14.73;;
30519;SDS011;17300;50.374;8.006;2022-11-30T02:17:56;21.43;;;14.10;;
30519;SDS011;17300;50.374;8.006;2022-11-30T02:20:32;19.70;;;13.90;;
30519;SDS011;17300;50.374;8.006;2022-11-30T02:23:17;22.43;;;14.47;;
30519;SDS011;17300;50.374;8.006;2022-11-30T02:26:05;19.50;;;13.53;;
30519;SDS011;17300;50.374;8.006;2022-11-30T02:28:44;21.17;;;13.83;;
30519;SDS011;17300;50.374;8.006;2022-11-30T02:31:20;18.93;;;12.80;;
30519;SDS011;17300;50.374;8.006;2022-11-30T02:33:52;19.27;;;12.83;;
30519;SDS011;17300;50.374;8.006;2022-11-30T02:36:23;18.67;;;13.30;;
30519;SDS011;17300;50.374;8.006;2022-11-30T02:38:51;19.53;;;13.13;;
30519;SDS011;17300;50.374;8.006;2022-11-30T02:41:18;19.33;;;13.90;;
30519;SDS011;17300;50.374;8.006;2022-11-30T02:43:46;20.77;;;13.60;;
30519;SDS011;17300;50.374;8.006;2022-11-30T02:46:13;18.30;;;12.57;;
30519;SDS011;17300;50.374;8.006;2022-11-30T02:48:48;19.80;;;13.47;;
30519;SDS011;17300;50.374;8.006;2022-11-30T02:51:32;17.30;;;11.97;;
30519;SDS011;17300;50.374;8.006;2022-11-30T02:54:03;24.27;;;13.50;;
30519;SDS011;17300;50.374;8.006;2022-11-30T02:56:29;18.87;;;12.97;;
30519;SDS011;17300;50.374;8.006;2022-11-30T02:58:58;20.27;;;12.87;;
30519;SDS011;17300;50.374;8.006;2022-11-30T03:01:25;19.07;;;13.27;;
30519;SDS011;17300;50.374;8.006;2022-11-30T03:03:52;21.03;;;12.83;;
30519;SDS011;17300;50.374;8.006;2022-11-30T03:06:19;20.83;;;13.20;;
30519;SDS011;17300;50.374;8.006;2022-11-30T03:08:45;20.33;;;13.50;;
30519;SDS011;17300;50.374;8.006;2022-11-30T03:11:12;20.80;;;13.97;;
30519;SDS011;17300;50.374;8.006;2022-11-30T03:13:39;18.90;;;12.93;;
30519;SDS011;17300;50.374;8.006;2022-11-30T03:16:08;19.53;;;13.07;;
30519;SDS011;17300;50.374;8.006;2022-11-30T03:18:37;17.93;;;12.53;;
30519;SDS011;17300;50.374;8.006;2022-11-30T03:21:04;19.40;;;12.73;;
30519;SDS011;17300;50.374;8.006;2022-11-30T03:23:32;19.80;;;13.70;;
30519;SDS011;17300;50.374;8.006;2022-11-30T03:25:59;18.60;;;12.97;;
30519;SDS011;17300;50.374;8.006;2022-11-30T03:28:26;18.93;;;13.20;;
30519;SDS011;17300;50.374;8.006;2022-11-30T03:30:53;19.40;;;12.47;;
30519;SDS011;17300;50.374;8.006;2022-11-30T03:33:21;18.27;;;12.67;;
30519;SDS011;17300;50.374;8.006;2022-11-30T03:35:47;17.13;;;12.63;;
30519;SDS011;17300;50.374;8.006;2022-11-30T03:38:14;19.17;;;12.87;;
30519;SDS011;17300;50.374;8.006;2022-11-30T03:40:41;18.00;;;12.03;;
30519;SDS011;17300;50.374;8.006;2022-11-30T03:43:07;19.33;;;12.87;;
30519;SDS011;17300;50.374;8.006;2022-11-30T03:45:34;18.73;;;12.80;;
30519;SDS011;17300;50.374;8.006;2022-11-30T03:48:01;17.23;;;12.53;;
30519;SDS011;17300;50.374;8.006;2022-11-30T03:50:29;17.87;;;12.10;;
30519;SDS011;17300;50.374;8.006;2022-11-30T03:52:55;16.57;;;11.80;;
30519;SDS011;17300;50.374;8.006;2022-11-30T03:55:22;16.90;;;11.67;;
30519;SDS011;17300;50.374;8.006;2022-11-30T03:57:49;17.27;;;11.60;;
30519;SDS011;17300;50.374;8.006;2022-11-30T04:00:16;17.67;;;11.67;;
30519;SDS011;17300;50.374;8.006;2022-11-30T04:02:52;16.23;;;11.20;;
30519;SDS011;17300;50.374;8.006;2022-11-30T04:05:19;15.33;;;11.30;;
30519;SDS011;17300;50.374;8.006;2022-11-30T04:07:47;16.50;;;11.57;;
30519;SDS011;17300;50.374;8.006;2022-11-30T04:10:14;14.93;;;11.03;;
30519;SDS011;17300;50.374;8.006;2022-11-30T04:12:41;16.13;;;11.20;;
30519;SDS011;17300;50.374;8.006;2022-11-30T04:15:08;15.53;;;11.13;;
30519;SDS011;17300;50.374;8.006;2022-11-30T04:17:35;16.37;;;10.73;;
30519;SDS011;17300;50.374;8.006;2022-11-30T04:20:02;15.17;;;10.83;;
30519;SDS011;17300;50.374;8.006;2022-11-30T04:22:30;14.83;;;11.07;;
30519;SDS011;17300;50.374;8.006;2022-11-30T04:24:59;15.43;;;11.33;;
30519;SDS011;17300;50.374;8.006;2022-11-30T04:27:26;15.90;;;11.30;;
30519;SDS011;17300;50.374;8.006;2022-11-30T04:29:54;18.70;;;11.70;;
30519;SDS011;17300;50.374;8.006;2022-11-30T04:32:20;17.17;;;11.40;;
30519;SDS011;17300;50.374;8.006;2022-11-30T04:34:47;14.20;;;10.53;;
30519;SDS011;17300;50.374;8.006;2022-11-30T04:37:14;15.97;;;11.23;;
30519;SDS011;17300;50.374;8.006;2022-11-30T04:39:40;14.93;;;11.17;;
30519;SDS011;17300;50.374;8.006;2022-11-30T04:42:08;17.30;;;11.97;;
30519;SDS011;17300;50.374;8.006;2022-11-30T04:44:35;14.87;;;11.40;;
30519;SDS011;17300;50.374;8.006;2022-11-30T04:47:02;15.33;;;10.90;;
30519;SDS011;17300;50.374;8.006;2022-11-30T04:49:28;16.20;;;11.50;;
30519;SDS011;17300;50.374;8.006;2022-11-30T04:51:55;15.53;;;10.73;;
30519;SDS011;17300;50.374;8.006;2022-11-30T04:54:22;15.17;;;11.13;;
30519;SDS011;17300;50.374;8.006;2022-11-30T04:56:49;17.07;;;11.37;;
30519;SDS011;17300;50.374;8.006;2022-11-30T04:59:17;14.23;;;10.60;;
30519;SDS011;17300;50.374;8.006;2022-11-30T05:01:43;15.80;;;11.20;;
30519;SDS011;17300;50.374;8.006;2022-11-30T05:04:10;14.63;;;10.73;;
30519;SDS011;17300;50.374;8.006;2022-11-30T05:06:37;15.53;;;11.33;;
30519;SDS011;17300;50.374;8.006;2022-11-30T05:09:03;15.67;;;10.87;;
30519;SDS011;17300;50.374;8.006;2022-11-30T05:11:30;14.67;;;10.33;;
30519;SDS011;17300;50.374;8.006;2022-11-30T05:13:57;13.17;;;9.63;;
30519;SDS011;17300;50.374;8.006;2022-11-30T05:16:25;16.30;;;10.73;;
30519;SDS011;17300;50.374;8.006;2022-11-30T05:18:51;14.83;;;10.57;;
30519;SDS011;17300;50.374;8.006;2022-11-30T05:21:18;12.97;;;9.97;;
30519;SDS011;17300;50.374;8.006;2022-11-30T05:23:45;14.00;;;10.43;;
30519;SDS011;17300;50.374;8.006;2022-11-30T05:26:12;13.17;;;9.37;;
30519;SDS011;17300;50.374;8.006;2022-11-30T05:28:39;13.73;;;10.40;;
30519;SDS011;17300;50.374;8.006;2022-11-30T05:31:06;14.07;;;10.50;;
30519;SDS011;17300;50.374;8.006;2022-11-30T05:33:34;15.67;;;10.30;;
30519;SDS011;17300;50.374;8.006;2022-11-30T06:06:59;13.57;;;9.37;;
30519;SDS011;17300;50.374;8.006;2022-11-30T06:09:27;12.97;;;9.83;;
30519;SDS011;17300;50.374;8.006;2022-11-30T06:12:05;14.50;;;10.13;;
30519;SDS011;17300;50.374;8.006;2022-11-30T06:14:32;12.77;;;9.90;;
30519;SDS011;17300;50.374;8.006;2022-11-30T06:16:59;11.17;;;8.97;;
30519;SDS011;17300;50.374;8.006;2022-11-30T06:19:25;13.90;;;9.80;;
30519;SDS011;17300;50.374;8.006;2022-11-30T06:21:52;11.70;;;9.60;;
30519;SDS011;17300;50.374;8.006;2022-11-30T06:24:20;13.23;;;9.60;;
30519;SDS011;17300;50.374;8.006;2022-11-30T06:26:47;11.30;;;9.47;;
30519;SDS011;17300;50.374;8.006;2022-11-30T06:29:14;13.17;;;9.27;;
30519;SDS011;17300;50.374;8.006;2022-11-30T06:31:46;12.80;;;9.97;;
30519;SDS011;17300;50.374;8.006;2022-11-30T06:34:12;13.20;;;10.10;;
30519;SDS011;17300;50.374;8.006;2022-11-30T06:36:47;12.70;;;9.03;;
30519;SDS011;17300;50.374;8.006;2022-11-30T06:39:30;11.23;;;8.93;;
30519;SDS011;17300;50.374;8.006;2022-11-30T06:42:09;13.37;;;9.23;;
30519;SDS011;17300;50.374;8.006;2022-11-30T06:44:36;14.53;;;9.47;;
30519;SDS011;17300;50.374;8.006;2022-11-30T06:47:03;11.53;;;8.80;;
30519;SDS011;17300;50.374;8.006;2022-11-30T06:49:30;12.13;;;8.97;;
30519;SDS011;17300;50.374;8.006;2022-11-30T06:51:56;12.17;;;8.77;;
30519;SDS011;17300;50.374;8.006;2022-11-30T06:54:23;11.90;;;9.20;;
30519;SDS011;17300;50.374;8.006;2022-11-30T06:56:51;10.90;;;8.87;;
30519;SDS011;17300;50.374;8.006;2022-11-30T06:59:18;11.93;;;9.43;;
30519;SDS011;17300;50.374;8.006;2022-11-30T07:01:45;13.40;;;10.03;;
30519;SDS011;17300;50.374;8.006;2022-11-30T07:04:11;12.83;;;9.97;;
30519;SDS011;17300;50.374;8.006;2022-11-30T07:06:38;12.60;;;9.17;;
30519;SDS011;17300;50.374;8.006;2022-11-30T07:09:05;12.50;;;9.53;;
30519;SDS011;17300;50.374;8.006;2022-11-30T07:11:34;13.67;;;10.37;;
30519;SDS011;17300;50.374;8.006;2022-11-30T07:14:02;13.07;;;9.87;;
30519;SDS011;17300;50.374;8.006;2022-11-30T07:16:29;15.17;;;10.77;;
30519;SDS011;17300;50.374;8.006;2022-11-30T07:18:55;13.67;;;10.33;;
30519;SDS011;17300;50.374;8.006;2022-11-30T07:21:22;13.67;;;10.67;;
30519;SDS011;17300;50.374;8.006;2022-11-30T07:23:49;13.77;;;10.37;;
30519;SDS011;17300;50.374;8.006;2022-11-30T07:26:30;14.03;;;10.43;;
30519;SDS011;17300;50.374;8.006;2022-11-30T07:28:56;13.03;;;9.70;;
30519;SDS011;17300;50.374;8.006;2022-11-30T07:31:25;13.10;;;10.00;;
30519;SDS011;17300;50.374;8.006;2022-11-30T07:33:53;11.93;;;9.67;;
30519;SDS011;17300;50.374;8.006;2022-11-30T07:36:21;13.00;;;9.77;;
30519;SDS011;17300;50.374;8.006;2022-11-30T07:38:50;12.07;;;9.83;;
30519;SDS011;17300;50.374;8.006;2022-11-30T07:41:16;11.97;;;9.47;;
30519;SDS011;17300;50.374;8.006;2022-11-30T07:43:43;14.00;;;10.17;;
30519;SDS011;17300;50.374;8.006;2022-11-30T07:46:11;11.70;;;9.43;;
30519;SDS011;17300;50.374;8.006;2022-11-30T07:48:40;11.97;;;9.17;;
30519;SDS011;17300;50.374;8.006;2022-11-30T07:51:09;13.87;;;10.07;;
30519;SDS011;17300;50.374;8.006;2022-11-30T07:53:38;12.40;;;9.73;;
30519;SDS011;17300;50.374;8.006;2022-11-30T07:56:06;11.37;;;9.37;;
30519;SDS011;17300;50.374;8.006;2022-11-30T07:58:34;11.97;;;9.70;;
30519;SDS011;17300;50.374;8.006;2022-11-30T08:01:01;12.57;;;9.90;;
30519;SDS011;17300;50.374;8.006;2022-11-30T08:03:29;13.27;;;10.57;;
30519;SDS011;17300;50.374;8.006;2022-11-30T08:06:01;14.97;;;11.97;;
30519;SDS011;17300;50.374;8.006;2022-11-30T08:08:29;13.37;;;11.53;;
30519;SDS011;17300;50.374;8.006;2022-11-30T08:10:56;14.57;;;11.20;;
30519;SDS011;17300;50.374;8.006;2022-11-30T08:13:23;14.70;;;11.73;;
30519;SDS011;17300;50.374;8.006;2022-11-30T08:15:50;14.40;;;11.07;;
30519;SDS011;17300;50.374;8.006;2022-11-30T08:18:17;13.93;;;11.73;;
30519;SDS011;17300;50.374;8.006;2022-11-30T08:20:43;13.83;;;10.93;;
30519;SDS011;17300;50.374;8.006;2022-11-30T08:23:12;14.67;;;11.77;;
30519;SDS011;17300;50.374;8.006;2022-11-30T08:25:38;14.10;;;11.00;;
30519;SDS011;17300;50.374;8.006;2022-11-30T08:28:05;14.20;;;10.93;;
30519;SDS011;17300;50.374;8.006;2022-11-30T08:30:32;14.73;;;10.23;;
30519;SDS011;17300;50.374;8.006;2022-11-30T08:32:58;12.67;;;9.83;;
30519;SDS011;17300;50.374;8.006;2022-11-30T08:35:25;12.30;;;9.60;;
30519;SDS011;17300;50.374;8.006;2022-11-30T08:37:52;13.60;;;10.00;;
30519;SDS011;17300;50.374;8.006;2022-11-30T08:40:20;12.90;;;10.20;;
30519;SDS011;17300;50.374;8.006;2022-11-30T08:42:46;12.67;;;9.80;;
30519;SDS011;17300;50.374;8.006;2022-11-30T08:45:13;12.50;;;9.93;;
30519;SDS011;17300;50.374;8.006;2022-11-30T08:47:40;13.50;;;10.30;;
30519;SDS011;17300;50.374;8.006;2022-11-30T08:50:07;12.63;;;10.03;;
30519;SDS011;17300;50.374;8.006;2022-11-30T08:52:34;11.87;;;9.87;;
30519;SDS011;17300;50.374;8.006;2022-11-30T08:55:01;13.87;;;10.73;;
30519;SDS011;17300;50.374;8.006;2022-11-30T08:57:29;13.43;;;10.40;;
30519;SDS011;17300;50.374;8.006;2022-11-30T08:59:56;13.93;;;10.50;;
30519;SDS011;17300;50.374;8.006;2022-11-30T09:02:23;12.37;;;9.90;;
30519;SDS011;17300;50.374;8.006;2022-11-30T09:04:49;13.60;;;10.73;;
30519;SDS011;17300;50.374;8.006;2022-11-30T09:07:17;14.00;;;10.67;;
30519;SDS011;17300;50.374;8.006;2022-11-30T09:09:44;12.57;;;9.87;;
30519;SDS011;17300;50.374;8.006;2022-11-30T09:12:11;11.50;;;9.60;;
30519;SDS011;17300;50.374;8.006;2022-11-30T09:14:39;12.83;;;9.97;;
30519;SDS011;17300;50.374;8.006;2022-11-30T09:17:06;12.67;;;10.63;;
30519;SDS011;17300;50.374;8.006;2022-11-30T09:19:33;12.27;;;9.93;;
30519;SDS011;17300;50.374;8.006;2022-11-30T09:22:00;10.30;;;8.90;;
30519;SDS011;17300;50.374;8.006;2022-11-30T09:24:26;10.90;;;8.83;;
30519;SDS011;17300;50.374;8.006;2022-11-30T09:26:53;10.40;;;8.47;;
30519;SDS011;17300;50.374;8.006;2022-11-30T09:29:21;11.33;;;9.20;;
30519;SDS011;17300;50.374;8.006;2022-11-30T09:31:50;10.90;;;8.60;;
30519;SDS011;17300;50.374;8.006;2022-11-30T09:34:16;10.63;;;8.97;;
30519;SDS011;17300;50.374;8.006;2022-11-30T09:36:43;11.37;;;9.97;;
30519;SDS011;17300;50.374;8.006;2022-11-30T09:39:10;12.30;;;10.13;;
30519;SDS011;17300;50.374;8.006;2022-11-30T09:41:50;11.33;;;9.73;;
30519;SDS011;17300;50.374;8.006;2022-11-30T09:44:39;11.40;;;9.53;;
30519;SDS011;17300;50.374;8.006;2022-11-30T09:47:20;11.83;;;9.67;;
30519;SDS011;17300;50.374;8.006;2022-11-30T09:49:54;13.07;;;9.97;;
30519;SDS011;17300;50.374;8.006;2022-11-30T09:52:23;10.73;;;9.07;;
30519;SDS011;17300;50.374;8.006;2022-11-30T09:54:57;11.50;;;9.37;;
30519;SDS011;17300;50.374;8.006;2022-11-30T09:57:35;11.37;;;9.27;;
30519;SDS011;17300;50.374;8.006;2022-11-30T10:00:09;9.90;;;8.67;;
30519;SDS011;17300;50.374;8.006;2022-11-30T10:02:40;10.30;;;8.77;;
30519;SDS011;17300;50.374;8.006;2022-11-30T10:05:12;9.10;;;7.93;;
30519;SDS011;17300;50.374;8.006;2022-11-30T10:07:47;9.43;;;8.03;;
30519;SDS011;17300;50.374;8.006;2022-11-30T10:10:26;9.37;;;8.37;;
30519;SDS011;17300;50.374;8.006;2022-11-30T10:13:00;9.07;;;7.87;;
30519;SDS011;17300;50.374;8.006;2022-11-30T10:15:40;8.57;;;7.67;;
30519;SDS011;17300;50.374;8.006;2022-11-30T10:18:21;9.53;;;7.70;;
30519;SDS011;17300;50.374;8.006;2022-11-30T10:20:58;7.87;;;6.90;;
30519;SDS011;17300;50.374;8.006;2022-11-30T10:26:29;7.47;;;6.57;;
30519;SDS011;17300;50.374;8.006;2022-11-30T10:29:16;7.77;;;6.97;;
30519;SDS011;17300;50.374;8.006;2022-11-30T10:31:52;8.07;;;7.00;;
30519;SDS011;17300;50.374;8.006;2022-11-30T10:34:28;7.03;;;6.33;;
30519;SDS011;17300;50.374;8.006;2022-11-30T10:36:59;7.90;;;7.10;;
30519;SDS011;17300;50.374;8.006;2022-11-30T10:39:29;7.77;;;6.80;;
30519;SDS011;17300;50.374;8.006;2022-11-30T10:42:03;7.53;;;6.73;;
30519;SDS011;17300;50.374;8.006;2022-11-30T10:44:35;7.83;;;7.03;;
30519;SDS011;17300;50.374;8.006;2022-11-30T10:47:06;6.83;;;6.20;;
30519;SDS011;17300;50.374;8.006;2022-11-30T10:49:45;7.70;;;6.90;;
30519;SDS011;17300;50.374;8.006;2022-11-30T10:52:14;8.73;;;7.13;;
30519;SDS011;17300;50.374;8.006;2022-11-30T10:54:44;7.57;;;6.67;;
30519;SDS011;17300;50.374;8.006;2022-11-30T10:57:11;7.50;;;6.70;;
30519;SDS011;17300;50.374;8.006;2022-11-30T10:59:40;8.23;;;7.43;;
30519;SDS011;17300;50.374;8.006;2022-11-30T11:05:08;7.50;;;6.70;;
30519;SDS011;17300;50.374;8.006;2022-11-30T11:07:43;7.60;;;6.47;;
30519;SDS011;17300;50.374;8.006;2022-11-30T11:10:23;7.70;;;6.53;;
30519;SDS011;17300;50.374;8.006;2022-11-30T11:12:56;8.07;;;6.87;;
30519;SDS011;17300;50.374;8.006;2022-11-30T11:15:24;7.37;;;6.63;;
30519;SDS011;17300;50.374;8.006;2022-11-30T11:17:56;7.80;;;7.00;;
30519;SDS011;17300;50.374;8.006;2022-11-30T11:20:59;7.60;;;6.70;;
30519;SDS011;17300;50.374;8.006;2022-11-30T11:23:29;7.53;;;6.83;;
30519;SDS011;17300;50.374;8.006;2022-11-30T11:25:58;7.73;;;6.97;;
30519;SDS011;17300;50.374;8.006;2022-11-30T11:28:26;8.47;;;7.20;;
30519;SDS011;17300;50.374;8.006;2022-11-30T11:30:55;7.93;;;7.10;;
30519;SDS011;17300;50.374;8.006;2022-11-30T11:33:23;7.90;;;6.90;;
30519;SDS011;17300;50.374;8.006;2022-11-30T11:35:51;8.40;;;7.27;;
30519;SDS011;17300;50.374;8.006;2022-11-30T11:38:22;7.87;;;6.80;;
30519;SDS011;17300;50.374;8.006;2022-11-30T11:40:55;7.87;;;6.63;;
30519;SDS011;17300;50.374;8.006;2022-11-30T11:43:24;7.10;;;6.40;;
30519;SDS011;17300;50.374;8.006;2022-11-30T11:45:54;7.30;;;6.60;;
30519;SDS011;17300;50.374;8.006;2022-11-30T11:48:25;7.53;;;6.60;;
30519;SDS011;17300;50.374;8.006;2022-11-30T11:51:01;6.93;;;6.23;;
30519;SDS011;17300;50.374;8.006;2022-11-30T11:56:22;6.73;;;6.03;;
30519;SDS011;17300;50.374;8.006;2022-11-30T11:58:54;7.10;;;6.40;;
30519;SDS011;17300;50.374;8.006;2022-11-30T12:01:29;8.87;;;7.23;;
30519;SDS011;17300;50.374;8.006;2022-11-30T12:04:15;6.67;;;6.00;;
30519;SDS011;17300;50.374;8.006;2022-11-30T12:07:09;6.67;;;5.97;;
30519;SDS011;17300;50.374;8.006;2022-11-30T12:10:02;7.50;;;6.07;;
30519;SDS011;17300;50.374;8.006;2022-11-30T12:12:36;7.60;;;6.47;;
30519;SDS011;17300;50.374;8.006;2022-11-30T12:15:03;6.87;;;6.13;;
30519;SDS011;17300;50.374;8.006;2022-11-30T12:17:38;6.70;;;6.00;;
30519;SDS011;17300;50.374;8.006;2022-11-30T12:20:16;6.87;;;6.17;;
30519;SDS011;17300;50.374;8.006;2022-11-30T12:22:52;7.77;;;6.97;;
30519;SDS011;17300;50.374;8.006;2022-11-30T12:25:35;7.20;;;6.10;;
30519;SDS011;17300;50.374;8.006;2022-11-30T12:28:21;7.07;;;6.30;;
30519;SDS011;17300;50.374;8.006;2022-11-30T12:30:57;7.97;;;7.17;;
30519;SDS011;17300;50.374;8.006;2022-11-30T12:33:59;7.10;;;6.30;;
30519;SDS011;17300;50.374;8.006;2022-11-30T12:36:36;7.77;;;6.67;;
30519;SDS011;17300;50.374;8.006;2022-11-30T12:39:12;7.50;;;6.80;;
30519;SDS011;17300;50.374;8.006;2022-11-30T12:41:49;8.00;;;7.20;;
30519;SDS011;17300;50.374;8.006;2022-11-30T12:44:22;8.00;;;6.87;;
30519;SDS011;17300;50.374;8.006;2022-11-30T12:46:57;7.90;;;6.80;;
30519;SDS011;17300;50.374;8.006;2022-11-30T12:49:41;7.27;;;6.33;;
30519;SDS011;17300;50.374;8.006;2022-11-30T12:52:21;7.33;;;6.57;;
30519;SDS011;17300;50.374;8.006;2022-11-30T12:54:59;7.17;;;6.47;;
30519;SDS011;17300;50.374;8.006;2022-11-30T12:57:34;7.60;;;6.67;;
30519;SDS011;17300;50.374;8.006;2022-11-30T13:00:07;7.23;;;6.40;;
30519;SDS011;17300;50.374;8.006;2022-11-30T13:02:44;7.50;;;6.73;;
30519;SDS011;17300;50.374;8.006;2022-11-30T13:05:31;8.03;;;6.67;;
30519;SDS011;17300;50.374;8.006;2022-11-30T13:08:04;7.37;;;6.40;;
30519;SDS011;17300;50.374;8.006;2022-11-30T13:10:42;7.53;;;6.70;;
30519;SDS011;17300;50.374;8.006;2022-11-30T13:13:13;6.97;;;6.27;;
30519;SDS011;17300;50.374;8.006;2022-11-30T13:15:46;8.17;;;6.90;;
30519;SDS011;17300;50.374;8.006;2022-11-30T13:18:15;7.40;;;6.30;;
30519;SDS011;17300;50.374;8.006;2022-11-30T13:20:45;7.10;;;6.30;;
30519;SDS011;17300;50.374;8.006;2022-11-30T13:23:17;7.43;;;6.73;;
30519;SDS011;17300;50.374;8.006;2022-11-30T13:25:55;7.33;;;6.23;;
30519;SDS011;17300;50.374;8.006;2022-11-30T13:28:39;8.03;;;6.83;;
30519;SDS011;17300;50.374;8.006;2022-11-30T13:31:20;7.20;;;6.23;;
30519;SDS011;17300;50.374;8.006;2022-11-30T13:33:55;8.97;;;8.00;;
30519;SDS011;17300;50.374;8.006;2022-11-30T13:36:33;9.20;;;7.43;;
30519;SDS011;17300;50.374;8.006;2022-11-30T13:39:17;7.60;;;6.43;;
30519;SDS011;17300;50.374;8.006;2022-11-30T13:41:48;8.07;;;6.70;;
30519;SDS011;17300;50.374;8.006;2022-11-30T13:44:28;8.70;;;7.33;;
30519;SDS011;17300;50.374;8.006;2022-11-30T13:46:57;7.33;;;6.23;;
30519;SDS011;17300;50.374;8.006;2022-11-30T14:03:24;11.67;;;8.17;;
30519;SDS011;17300;50.374;8.006;2022-11-30T14:09:59;10.93;;;8.47;;
30519;SDS011;17300;50.374;8.006;2022-11-30T14:15:50;14.90;;;10.27;;
30519;SDS011;17300;50.374;8.006;2022-11-30T14:18:23;13.87;;;10.13;;
30519;SDS011;17300;50.374;8.006;2022-11-30T14:21:02;17.60;;;11.80;;
30519;SDS011;17300;50.374;8.006;2022-11-30T14:23:40;17.57;;;12.63;;
30519;SDS011;17300;50.374;8.006;2022-11-30T14:26:12;17.03;;;11.63;;
30519;SDS011;17300;50.374;8.006;2022-11-30T14:28:49;17.20;;;12.60;;
30519;SDS011;17300;50.374;8.006;2022-11-30T14:31:20;17.23;;;12.67;;
30519;SDS011;17300;50.374;8.006;2022-11-30T14:33:53;18.07;;;13.23;;
30519;SDS011;17300;50.374;8.006;2022-11-30T14:36:24;17.07;;;12.93;;
30519;SDS011;17300;50.374;8.006;2022-11-30T14:38:58;17.20;;;12.43;;
30519;SDS011;17300;50.374;8.006;2022-11-30T14:41:28;17.03;;;12.90;;
30519;SDS011;17300;50.374;8.006;2022-11-30T14:44:00;18.17;;;12.47;;
30519;SDS011;17300;50.374;8.006;2022-11-30T14:46:30;17.07;;;12.47;;
30519;SDS011;17300;50.374;8.006;2022-11-30T14:49:04;16.60;;;12.20;;
30519;SDS011;17300;50.374;8.006;2022-11-30T14:51:33;17.40;;;12.27;;
30519;SDS011;17300;50.374;8.006;2022-11-30T14:54:02;16.80;;;12.20;;
30519;SDS011;17300;50.374;8.006;2022-11-30T14:56:38;15.73;;;11.60;;
30519;SDS011;17300;50.374;8.006;2022-11-30T14:59:12;16.57;;;12.57;;
30519;SDS011;17300;50.374;8.006;2022-11-30T15:01:54;15.47;;;11.87;;
30519;SDS011;17300;50.374;8.006;2022-11-30T15:04:23;27.03;;;12.13;;
30519;SDS011;17300;50.374;8.006;2022-11-30T15:06:51;16.67;;;12.40;;
30519;SDS011;17300;50.374;8.006;2022-11-30T15:09:20;17.93;;;12.43;;
30519;SDS011;17300;50.374;8.006;2022-11-30T15:11:49;15.73;;;12.53;;
30519;SDS011;17300;50.374;8.006;2022-11-30T15:14:17;16.00;;;12.33;;
30519;SDS011;17300;50.374;8.006;2022-11-30T15:16:47;17.43;;;13.17;;
30519;SDS011;17300;50.374;8.006;2022-11-30T15:19:18;17.33;;;13.07;;
30519;SDS011;17300;50.374;8.006;2022-11-30T15:21:49;15.43;;;12.10;;
30519;SDS011;17300;50.374;8.006;2022-11-30T15:24:16;15.60;;;11.70;;
30519;SDS011;17300;50.374;8.006;2022-11-30T15:26:46;16.57;;;12.10;;
30519;SDS011;17300;50.374;8.006;2022-11-30T15:29:18;17.20;;;11.53;;
30519;SDS011;17300;50.374;8.006;2022-11-30T15:31:57;14.93;;;11.57;;
30519;SDS011;17300;50.374;8.006;2022-11-30T15:34:30;14.13;;;11.47;;
30519;SDS011;17300;50.374;8.006;2022-11-30T15:37:03;16.90;;;12.47;;
30519;SDS011;17300;50.374;8.006;2022-11-30T15:39:33;16.30;;;11.80;;
30519;SDS011;17300;50.374;8.006;2022-11-30T15:42:00;15.73;;;12.27;;
30519;SDS011;17300;50.374;8.006;2022-11-30T15:44:37;16.03;;;12.30;;
30519;SDS011;17300;50.374;8.006;2022-11-30T15:47:05;15.13;;;11.73;;
30519;SDS011;17300;50.374;8.006;2022-11-30T15:49:49;17.97;;;12.10;;
30519;SDS011;17300;50.374;8.006;2022-11-30T15:52:18;14.57;;;11.73;;